EST,Max TemperatureF,Mean TemperatureF,Min TemperatureF,Max Dew PointF,MeanDew PointF,Min DewpointF,Max Humidity, Mean Humidity, Min Humidity, Max Sea Level PressureIn, Mean Sea Level PressureIn, Min Sea Level PressureIn, Max VisibilityMiles, Mean VisibilityMiles, Min VisibilityMiles, Max Wind SpeedMPH, Mean Wind SpeedMPH, Max Gust SpeedMPH,PrecipitationIn, CloudCover, Events, WindDirDegrees
2013-11-1,70,59,48,63,56,46,100,82,53,29.79,29.64,29.55,10,8,1,12,5,37,0.19,5,Rain,196
2013-11-2,68,52,44,50,46,44,100,92,58,29.69,29.66,29.64,10,6,0,6,2,,0.00,5,Fog,313
2013-11-3,52,44,35,40,30,18,97,60,32,30.44,30.11,29.81,10,10,5,14,6,28,0.01,3,,339
2013-11-4,48,36,25,25,19,12,85,55,24,30.65,30.59,30.48,10,10,10,12,4,17,0.00,0,,353
2013-11-5,55,42,30,41,34,25,86,70,47,30.64,30.58,30.50,10,10,10,7,2,,0.00,3,,300
2013-11-6,64,52,39,48,44,38,93,76,52,30.48,30.29,30.07,10,10,9,8,2,,0.00,5,,185
2013-11-7,62,48,35,57,47,30,93,84,56,30.04,29.89,29.76,10,9,2,15,2,22,0.10,7,Rain,310
2013-11-8,50,39,28,35,28,24,88,62,36,30.23,30.09,29.96,10,10,10,14,5,26,0.00,3,,296
2013-11-9,51,38,24,32,27,23,96,68,36,30.30,30.19,29.99,10,10,10,7,1,,0.00,1,,225
2013-11-10,59,44,30,34,30,26,92,59,38,30.07,29.95,29.85,10,10,7,14,4,29,0.00,4,,285
2013-11-11,54,45,36,33,28,23,62,47,35,30.22,30.10,29.96,10,10,10,10,5,17,0.00,4,,248
2013-11-12,50,38,27,34,22,15,82,56,42,30.32,30.15,29.93,10,10,5,17,7,25,0.02,4,Rain-Snow,325
2013-11-13,39,31,23,17,14,7,78,54,28,30.39,30.34,30.30,10,10,10,16,6,24,0.00,0,,313
2013-11-14,54,38,21,20,16,10,88,50,17,30.27,30.22,30.17,10,10,10,9,4,,0.00,0,,207
2013-11-15,57,40,23,30,24,19,88,64,27,30.25,30.21,30.16,10,10,6,6,2,28,0.00,0,,220
2013-11-16,61,48,35,45,41,28,97,82,48,30.33,30.28,30.25,10,9,5,7,1,,0.04,4,Rain,173
2013-11-17,62,54,46,58,52,44,97,91,80,30.26,30.08,29.77,10,5,2,7,1,,0.01,8,Rain,156
2013-11-18,64,58,50,62,42,24,93,58,27,29.81,29.68,29.60,10,10,5,13,8,23,0.14,3,Rain,248
2013-11-19,48,42,35,26,22,20,57,44,37,30.36,30.10,29.82,10,10,10,22,13,32,0.00,2,,326
2013-11-20,46,35,23,20,14,2,81,48,16,30.62,30.52,30.36,10,10,10,12,6,,0.00,0,,359
2013-11-21,53,37,21,40,29,17,88,68,46,30.61,30.52,30.39,10,10,10,7,2,,0.00,4,,280
2013-11-22,57,52,46,49,45,39,93,83,69,30.37,30.13,29.92,10,9,4,6,1,,0.08,7,Rain,290
2013-11-23,53,42,30,44,22,2,71,48,30,30.06,30.00,29.94,10,10,6,20,12,34,0.00,2,Snow,312
2013-11-24,28,24,21,5,1,-1,48,36,31,30.40,30.24,30.07,10,10,10,24,14,40,0.00,2,,306
2013-11-25,35,26,17,13,10,5,66,49,39,30.50,30.43,30.38,10,10,10,7,3,,0.00,0,,269
2013-11-26,44,37,35,42,37,34,97,96,93,30.08,29.93,29.73,6,4,2,7,5,,0.50,8,Rain,40
2013-11-27,60,50,39,59,54,34,97,94,76,29.68,29.46,29.37,10,4,1,14,5,17,1.86,8,Rain,83
2013-11-28,,,,,,,,,,,,,,,,,,,,,,
2013-11-29,,,,,,,,,,,,,,,,,,,,,,
2013-11-30,,,,,,,,,,,,,,,,,,,,,,